Time;durP1;ratioP1;P1;durP2;ratioP2;P2;SDS_P1;SDS_P2;PMS_P1;PMS_P2;Temp;Humidity;BMP_temperature;BMP_pressure;BME280_temperature;BME280_humidity;BME280_pressure;Samples;Min_cycle;Max_cycle;Signal;HPM_P1;HPM_P2
2022/07/15 00:02:05;;;;;;;3.90;2.70;;;24.60;1.00;;;;;;5090646;28;20103;-79
2022/07/15 00:04:31;;;;;;;4.50;2.83;;;24.70;1.00;;;;;;5090447;28;20024;-78
2022/07/15 00:06:57;;;;;;;4.35;2.83;;;24.50;1.00;;;;;;5090709;28;20085;-78
2022/07/15 00:10:13;;;;;;;4.28;3.00;;;24.30;1.00;;;;;;5090507;28;20024;-79
2022/07/15 00:12:08;;;;;;;4.30;2.90;;;24.30;1.00;;;;;;5088658;28;20021;-78
2022/07/15 00:14:34;;;;;;;3.58;2.97;;;24.20;1.00;;;;;;5091267;28;20488;-78
2022/07/15 00:17:00;;;;;;;3.65;3.05;;;24.20;1.00;;;;;;5090165;28;20016;-79
2022/07/15 00:19:26;;;;;;;3.50;2.75;;;24.20;1.00;;;;;;5090326;28;20090;-78
2022/07/15 00:21:51;;;;;;;3.13;2.80;;;24.30;1.00;;;;;;5090598;28;20024;-79
2022/07/15 00:24:17;;;;;;;4.13;2.67;;;24.40;1.00;;;;;;5090305;28;20110;-78
2022/07/15 00:26:42;;;;;;;3.20;2.90;;;24.50;1.00;;;;;;5092286;28;20016;-78
2022/07/15 00:29:08;;;;;;;3.65;2.78;;;24.50;1.00;;;;;;5089676;28;20097;-78
2022/07/15 00:31:34;;;;;;;3.08;2.78;;;24.40;1.00;;;;;;5090361;28;20048;-78
2022/07/15 00:33:59;;;;;;;3.00;2.80;;;24.30;1.00;;;;;;5088645;28;20071;-78
2022/07/15 00:36:25;;;;;;;5.57;2.92;;;24.50;1.00;;;;;;5090266;28;20016;-78
2022/07/15 00:38:51;;;;;;;3.20;2.90;;;24.50;1.00;;;;;;5092501;28;20051;-78
2022/07/15 00:41:16;;;;;;;3.05;2.60;;;24.40;1.00;;;;;;5090232;28;20020;-79
2022/07/15 00:43:42;;;;;;;2.67;2.47;;;24.50;1.00;;;;;;5088573;28;20384;-78
2022/07/15 00:46:08;;;;;;;3.35;2.90;;;24.20;1.00;;;;;;5090084;28;20101;-79
2022/07/15 00:48:33;;;;;;;4.65;2.70;;;24.20;1.00;;;;;;5090391;28;20481;-78
2022/07/15 00:50:59;;;;;;;3.85;3.05;;;24.40;1.00;;;;;;5092388;28;20535;-79
2022/07/15 00:53:28;;;;;;;3.95;2.90;;;24.30;1.00;;;;;;5088736;28;20075;-78
2022/07/15 00:55:58;;;;;;;3.00;2.80;;;24.20;1.00;;;;;;5090147;28;20024;-78
2022/07/15 00:58:26;;;;;;;4.50;2.80;;;24.30;1.00;;;;;;5089459;28;20052;-79
2022/07/15 01:00:54;;;;;;;4.93;2.83;;;24.10;1.00;;;;;;5090040;28;20626;-78
2022/07/15 01:03:20;;;;;;;4.60;3.00;;;24.10;1.00;;;;;;5090069;28;20509;-78
2022/07/15 01:05:47;;;;;;;3.47;2.70;;;24.00;1.00;;;;;;5092115;28;20028;-78
2022/07/15 01:08:14;;;;;;;3.20;2.90;;;23.90;1.00;;;;;;5089999;28;20050;-78
2022/07/15 01:10:41;;;;;;;5.47;2.90;;;23.90;1.00;;;;;;5089850;28;20107;-78
2022/07/15 01:13:06;;;;;;;5.68;3.00;;;23.80;1.00;;;;;;5088245;28;20031;-78
2022/07/15 01:15:32;;;;;;;3.30;3.00;;;23.80;1.00;;;;;;5090129;28;20392;-78
2022/07/15 01:18:00;;;;;;;4.47;2.70;;;23.90;1.00;;;;;;5092256;28;20021;-78
2022/07/15 01:20:26;;;;;;;3.53;2.65;;;23.80;1.00;;;;;;5090059;28;20036;-78
2022/07/15 01:22:51;;;;;;;4.28;3.08;;;23.70;1.00;;;;;;5088517;28;20026;-78
2022/07/15 01:25:17;;;;;;;5.43;2.88;;;23.60;1.00;;;;;;5089677;28;20059;-79
2022/07/15 01:27:43;;;;;;;4.57;3.30;;;23.50;1.00;;;;;;5089092;28;20110;-78
2022/07/15 01:30:09;;;;;;;3.28;2.90;;;23.50;1.00;;;;;;5090701;28;20059;-79
2022/07/15 01:32:34;;;;;;;3.28;3.00;;;23.60;1.00;;;;;;5091270;28;20138;-79
2022/07/15 01:35:00;;;;;;;3.22;2.80;;;23.60;1.00;;;;;;5089677;28;20155;-78
2022/07/15 01:37:26;;;;;;;3.40;3.10;;;23.60;1.00;;;;;;5089625;28;20030;-79
2022/07/15 01:39:52;;;;;;;3.50;3.20;;;23.60;1.00;;;;;;5092547;28;20115;-78
2022/07/15 01:42:18;;;;;;;3.63;2.90;;;23.60;1.00;;;;;;5093023;28;20017;-78
2022/07/15 01:44:43;;;;;;;3.42;3.13;;;23.40;1.00;;;;;;5095421;28;20031;-78
2022/07/15 01:47:09;;;;;;;5.03;3.08;;;23.20;1.00;;;;;;5093319;28;20020;-78
2022/07/15 01:49:35;;;;;;;3.03;2.83;;;23.10;1.00;;;;;;5093142;28;20070;-78
2022/07/15 01:52:03;;;;;;;3.40;3.10;;;23.20;1.00;;;;;;5091809;28;20031;-78
2022/07/15 01:54:30;;;;;;;4.43;2.85;;;23.20;1.00;;;;;;5077197;28;20350;-78
2022/07/15 01:56:56;;;;;;;3.13;2.90;;;23.20;1.00;;;;;;5090437;28;20035;-78
2022/07/15 01:59:23;;;;;;;4.53;2.95;;;23.20;1.00;;;;;;5093146;28;20040;-78
2022/07/15 02:01:51;;;;;;;3.67;2.85;;;23.00;1.00;;;;;;5092884;28;20106;-78
2022/07/15 02:04:17;;;;;;;3.90;3.00;;;23.00;1.00;;;;;;5092852;28;20034;-78
2022/07/15 02:06:43;;;;;;;3.15;2.90;;;23.00;1.00;;;;;;5093007;28;20089;-78
2022/07/15 02:09:09;;;;;;;3.50;2.90;;;23.10;1.00;;;;;;5093890;28;20432;-78
2022/07/15 02:11:35;;;;;;;3.20;2.90;;;23.10;1.00;;;;;;5093680;28;20103;-79
2022/07/15 02:14:02;;;;;;;3.72;3.08;;;22.90;1.00;;;;;;5092437;28;20020;-78
2022/07/15 02:16:29;;;;;;;3.55;3.20;;;22.90;1.00;;;;;;5092720;28;20020;-78
2022/07/15 02:18:55;;;;;;;3.58;3.28;;;22.90;1.00;;;;;;5092491;28;20058;-78
2022/07/15 02:21:21;;;;;;;6.38;2.95;;;23.00;1.00;;;;;;5074416;28;20036;-78
2022/07/15 02:23:47;;;;;;;3.45;3.15;;;23.00;1.00;;;;;;5094389;28;20025;-78
2022/07/15 02:26:13;;;;;;;3.83;3.40;;;22.90;1.00;;;;;;5091923;28;20114;-78
2022/07/15 02:28:39;;;;;;;6.40;3.00;;;23.10;1.00;;;;;;5091872;28;20508;-79
2022/07/15 02:31:06;;;;;;;3.83;3.13;;;22.90;1.00;;;;;;5090839;28;20457;-78
2022/07/15 02:33:32;;;;;;;3.00;2.70;;;22.90;1.00;;;;;;5073860;28;20024;-78
2022/07/15 02:35:58;;;;;;;3.80;3.10;;;22.80;1.00;;;;;;5094456;28;20055;-78
2022/07/15 02:38:23;;;;;;;3.42;3.13;;;22.90;1.00;;;;;;5091742;28;20456;-78
2022/07/15 02:40:49;;;;;;;3.72;3.20;;;22.80;1.00;;;;;;5090843;28;20031;-78
2022/07/15 02:43:15;;;;;;;3.85;3.13;;;22.50;1.00;;;;;;5092111;28;20435;-78
2022/07/15 02:45:41;;;;;;;3.35;3.05;;;22.70;1.00;;;;;;5092122;28;20115;-78
2022/07/15 02:48:07;;;;;;;4.22;3.00;;;22.60;1.00;;;;;;5093141;28;20454;-79
2022/07/15 02:50:34;;;;;;;3.25;2.95;;;22.60;1.00;;;;;;5092859;28;20388;-78
2022/07/15 02:53:01;;;;;;;6.15;2.97;;;22.70;1.00;;;;;;5091333;28;20012;-78
2022/07/15 02:55:27;;;;;;;4.28;3.03;;;22.70;1.00;;;;;;5091795;28;20106;-78
2022/07/15 02:57:53;;;;;;;4.60;3.38;;;22.70;1.00;;;;;;5091770;28;20107;-78
2022/07/15 03:00:19;;;;;;;3.50;3.20;;;22.60;1.00;;;;;;5091613;28;20070;-78
2022/07/15 03:02:46;;;;;;;4.88;3.00;;;22.50;1.00;;;;;;5093703;28;20028;-78
2022/07/15 03:05:12;;;;;;;4.30;3.15;;;22.60;1.00;;;;;;5091590;28;20028;-78
2022/07/15 03:07:38;;;;;;;3.95;3.55;;;22.50;1.00;;;;;;5091273;28;20040;-78
2022/07/15 03:10:05;;;;;;;3.33;3.03;;;22.30;1.00;;;;;;5072044;28;20055;-78
2022/07/15 03:12:31;;;;;;;4.15;2.95;;;22.40;1.00;;;;;;5091553;28;20024;-78
2022/07/15 03:14:57;;;;;;;3.65;3.33;;;22.40;1.00;;;;;;5093237;28;20028;-78
2022/07/15 03:17:23;;;;;;;4.35;3.20;;;22.40;1.00;;;;;;5091625;28;20042;-78
2022/07/15 03:19:49;;;;;;;3.47;3.08;;;22.40;1.00;;;;;;5090123;28;20057;-78
2022/07/15 03:22:15;;;;;;;5.03;3.08;;;22.40;1.00;;;;;;5090649;28;20114;-79
2022/07/15 03:24:41;;;;;;;3.50;3.20;;;22.30;1.00;;;;;;5091071;28;20500;-79
2022/07/15 03:27:08;;;;;;;3.47;3.20;;;22.40;1.00;;;;;;5092258;28;20027;-78
2022/07/15 03:29:34;;;;;;;4.30;3.13;;;22.30;1.00;;;;;;5092196;28;20052;-78
2022/07/15 03:32:00;;;;;;;5.47;3.33;;;22.30;1.00;;;;;;5091192;28;20502;-78
2022/07/15 03:34:25;;;;;;;3.10;2.90;;;22.20;1.00;;;;;;5090814;28;20048;-78
2022/07/15 03:36:52;;;;;;;4.75;3.20;;;22.30;1.00;;;;;;5090749;28;20400;-78
2022/07/15 03:39:18;;;;;;;3.45;3.15;;;22.30;1.00;;;;;;5091098;28;20124;-79
2022/07/15 03:41:43;;;;;;;5.05;3.53;;;22.30;1.00;;;;;;5093108;28;20392;-78
2022/07/15 03:44:09;;;;;;;3.60;3.28;;;22.20;1.00;;;;;;5090667;28;20056;-78
2022/07/15 03:46:35;;;;;;;3.60;3.30;;;22.20;1.00;;;;;;5090978;28;20024;-78
2022/07/15 03:49:01;;;;;;;3.90;3.45;;;22.20;1.00;;;;;;5089578;28;20154;-78
2022/07/15 03:51:31;;;;;;;3.50;3.20;;;22.20;1.00;;;;;;5074421;28;20115;-78
2022/07/15 03:54:01;;;;;;;9.05;3.30;;;22.10;1.00;;;;;;5088515;28;20032;-78
2022/07/15 03:56:28;;;;;;;3.60;3.10;;;22.20;1.00;;;;;;5091501;28;20031;-78
2022/07/15 03:58:54;;;;;;;4.38;3.10;;;22.20;1.00;;;;;;5090542;28;20027;-78
2022/07/15 04:01:20;;;;;;;4.13;3.42;;;22.10;1.00;;;;;;5090194;28;20020;-78
2022/07/15 04:03:50;;;;;;;7.45;3.55;;;22.00;1.00;;;;;;5090725;28;20023;-78
2022/07/15 04:06:16;;;;;;;6.25;3.47;;;22.10;1.00;;;;;;5090248;28;20032;-78
2022/07/15 04:08:43;;;;;;;3.78;3.47;;;22.00;1.00;;;;;;5092785;28;20032;-78
2022/07/15 04:11:10;;;;;;;3.67;3.38;;;22.00;1.00;;;;;;5090497;28;20016;-77
2022/07/15 04:13:36;;;;;;;4.40;3.22;;;22.00;1.00;;;;;;5090387;28;20022;-78
2022/07/15 04:16:02;;;;;;;4.05;3.40;;;22.00;1.00;;;;;;5090478;28;20024;-78
2022/07/15 04:18:27;;;;;;;3.95;3.40;;;21.90;1.00;;;;;;5074199;28;20392;-77
2022/07/15 04:20:53;;;;;;;5.53;3.47;;;22.00;1.00;;;;;;5092467;28;20028;-78
2022/07/15 04:23:19;;;;;;;5.00;3.85;;;21.90;1.00;;;;;;5090407;28;20051;-77
2022/07/15 04:25:44;;;;;;;5.43;3.58;;;22.00;1.00;;;;;;5089977;28;20487;-78
2022/07/15 04:28:10;;;;;;;5.30;3.90;;;22.00;1.00;;;;;;5088891;28;20044;-78
2022/07/15 04:30:36;;;;;;;3.67;3.30;;;21.90;1.00;;;;;;5090353;28;20491;-78
2022/07/15 04:33:02;;;;;;;4.10;3.70;;;21.90;1.00;;;;;;5091932;28;20028;-79
2022/07/15 04:35:27;;;;;;;4.63;3.80;;;21.90;1.00;;;;;;5089088;28;20012;-78
2022/07/15 04:37:53;;;;;;;3.85;3.53;;;21.80;1.00;;;;;;5089003;28;20039;-78
2022/07/15 04:40:19;;;;;;;5.50;3.72;;;21.80;1.00;;;;;;5090159;28;20074;-78
2022/07/15 04:42:45;;;;;;;4.95;3.80;;;21.80;1.00;;;;;;5090231;28;20048;-78
2022/07/15 04:45:10;;;;;;;6.45;3.85;;;22.00;1.00;;;;;;5091098;28;20078;-78
2022/07/15 04:47:36;;;;;;;4.13;3.70;;;21.80;1.00;;;;;;5091493;28;20024;-78
2022/07/15 04:52:48;;;;;;;5.30;3.83;;;21.90;1.00;;;;;;5090330;28;20069;-79
2022/07/15 04:55:14;;;;;;;5.00;3.65;;;22.00;1.00;;;;;;5089856;28;20043;-79
2022/07/15 04:57:41;;;;;;;5.18;4.32;;;22.10;1.00;;;;;;5090250;28;20024;-78
2022/07/15 05:00:08;;;;;;;6.63;4.00;;;22.10;1.00;;;;;;5091030;28;20081;-79
2022/07/15 05:02:34;;;;;;;5.22;3.60;;;22.00;1.00;;;;;;5091365;28;20430;-79
2022/07/15 05:04:59;;;;;;;5.88;3.38;;;22.00;1.00;;;;;;5089676;28;20028;-79
2022/07/15 05:07:25;;;;;;;5.97;3.63;;;22.00;1.00;;;;;;5088085;28;20460;-79
2022/07/15 05:09:50;;;;;;;4.25;3.60;;;22.10;1.00;;;;;;5089645;28;20110;-79
2022/07/15 05:12:16;;;;;;;4.68;3.63;;;22.20;1.00;;;;;;5089811;28;20073;-78
2022/07/15 05:14:42;;;;;;;5.60;3.90;;;22.20;1.00;;;;;;5094625;28;20098;-79
2022/07/15 05:17:08;;;;;;;5.05;3.80;;;22.20;1.00;;;;;;5093865;28;20036;-78
2022/07/15 05:19:34;;;;;;;5.13;3.78;;;22.20;1.00;;;;;;5093265;28;20040;-78
2022/07/15 05:21:59;;;;;;;4.20;3.80;;;22.20;1.00;;;;;;5093762;28;20116;-78
2022/07/15 05:24:25;;;;;;;4.97;4.15;;;22.30;1.00;;;;;;5093651;28;20061;-79
2022/07/15 05:26:51;;;;;;;4.05;3.65;;;22.30;1.00;;;;;;5095470;28;20028;-78
2022/07/15 05:29:17;;;;;;;5.38;3.58;;;22.40;1.00;;;;;;5093239;28;20085;-78
2022/07/15 05:31:43;;;;;;;6.18;3.90;;;22.30;1.00;;;;;;5073752;28;20525;-78
2022/07/15 05:34:09;;;;;;;5.68;4.13;;;22.30;1.00;;;;;;5093133;28;20020;-78
2022/07/15 05:36:34;;;;;;;8.10;4.00;;;22.40;1.00;;;;;;5093552;28;20036;-78
2022/07/15 05:39:00;;;;;;;6.72;4.07;;;22.40;1.00;;;;;;5077038;28;20085;-78
2022/07/15 05:41:26;;;;;;;4.50;3.83;;;22.40;1.00;;;;;;5093807;28;20028;-78
2022/07/15 05:43:52;;;;;;;5.32;3.90;;;22.50;1.00;;;;;;5093307;28;20020;-78
2022/07/15 05:46:17;;;;;;;5.45;4.38;;;22.50;1.00;;;;;;5091678;28;20073;-78
2022/07/15 05:48:43;;;;;;;5.85;4.20;;;22.60;1.00;;;;;;5092878;28;20028;-78
2022/07/15 05:51:09;;;;;;;5.93;4.03;;;22.60;1.00;;;;;;5094103;28;20035;-77
2022/07/15 05:53:34;;;;;;;5.28;4.18;;;22.80;1.00;;;;;;5094427;28;20052;-78
2022/07/15 05:56:00;;;;;;;6.03;3.90;;;22.90;1.00;;;;;;5093065;28;20032;-78
2022/07/15 05:58:26;;;;;;;5.60;3.50;;;23.10;1.00;;;;;;5092864;28;20110;-78
2022/07/15 06:00:52;;;;;;;7.95;3.92;;;23.10;1.00;;;;;;5093116;28;20023;-79
2022/07/15 06:03:18;;;;;;;3.65;3.30;;;23.10;1.00;;;;;;5092561;28;20043;-78
2022/07/15 06:05:44;;;;;;;3.88;3.40;;;23.30;1.00;;;;;;5094916;28;20468;-78
2022/07/15 06:08:13;;;;;;;4.10;3.75;;;23.40;1.00;;;;;;5092769;28;20020;-78
2022/07/15 06:10:40;;;;;;;7.18;4.20;;;23.20;1.00;;;;;;5092657;28;20031;-78
2022/07/15 06:13:06;;;;;;;4.30;3.90;;;23.20;1.00;;;;;;5092781;28;20069;-78
2022/07/15 06:15:31;;;;;;;6.85;3.92;;;23.30;1.00;;;;;;5092797;28;20044;-78
2022/07/15 06:17:57;;;;;;;3.97;3.33;;;23.30;1.00;;;;;;5094424;28;20020;-78
2022/07/15 06:20:23;;;;;;;6.18;4.10;;;23.40;1.00;;;;;;5092601;28;20626;-78
2022/07/15 06:22:49;;;;;;;3.95;3.55;;;23.40;1.00;;;;;;5092504;28;20027;-78
2022/07/15 06:25:15;;;;;;;3.80;3.50;;;23.50;1.00;;;;;;5090632;28;20491;-78
2022/07/15 06:27:41;;;;;;;5.55;4.00;;;23.50;1.00;;;;;;5092319;28;20031;-78
2022/07/15 06:30:08;;;;;;;4.15;3.65;;;23.50;1.00;;;;;;5093695;28;20035;-78
2022/07/15 06:32:34;;;;;;;6.65;4.00;;;23.60;1.00;;;;;;5093287;28;20017;-78
2022/07/15 06:35:00;;;;;;;3.88;3.58;;;23.30;1.00;;;;;;5092272;28;20078;-78
2022/07/15 06:37:27;;;;;;;4.60;3.78;;;23.60;1.00;;;;;;5092131;28;20073;-78
2022/07/15 06:39:54;;;;;;;4.13;3.67;;;23.90;1.00;;;;;;5092219;28;20115;-78
2022/07/15 06:42:20;;;;;;;4.10;3.70;;;23.90;1.00;;;;;;5092081;28;20440;-78
2022/07/15 06:44:46;;;;;;;5.75;3.92;;;23.70;1.00;;;;;;5094145;28;20046;-78
2022/07/15 06:47:12;;;;;;;4.05;3.70;;;23.90;1.00;;;;;;5091759;28;20017;-78
2022/07/15 06:49:38;;;;;;;4.82;3.60;;;23.90;1.00;;;;;;5091887;28;20032;-78
2022/07/15 06:52:04;;;;;;;4.05;3.35;;;23.80;1.00;;;;;;5091872;28;20024;-78
2022/07/15 06:54:30;;;;;;;4.97;3.85;;;23.80;1.00;;;;;;5092126;28;20111;-78
2022/07/15 06:56:56;;;;;;;6.35;4.50;;;23.90;1.00;;;;;;5089659;28;20020;-78
2022/07/15 06:59:22;;;;;;;6.38;3.90;;;23.80;1.00;;;;;;5091548;28;20507;-79
2022/07/15 07:01:48;;;;;;;4.00;3.60;;;23.90;1.00;;;;;;5091786;28;20024;-78
2022/07/15 07:04:13;;;;;;;4.78;3.90;;;24.00;1.00;;;;;;5090263;28;20032;-78
2022/07/15 07:06:39;;;;;;;5.90;4.10;;;24.00;1.00;;;;;;5091875;28;20496;-78
2022/07/15 07:09:05;;;;;;;5.75;4.00;;;23.90;1.00;;;;;;5093107;28;20154;-78
2022/07/15 07:11:32;;;;;;;4.28;3.70;;;23.90;1.00;;;;;;5092486;28;20020;-78
2022/07/15 07:13:58;;;;;;;6.28;3.85;;;23.90;1.00;;;;;;5090973;28;20031;-78
2022/07/15 07:16:24;;;;;;;7.55;4.35;;;23.90;1.00;;;;;;5091333;28;20021;-78
2022/07/15 07:18:50;;;;;;;7.28;3.92;;;23.80;1.00;;;;;;5091443;28;20085;-78
2022/07/15 07:21:17;;;;;;;4.10;3.70;;;23.90;1.00;;;;;;5091295;28;20370;-78
2022/07/15 07:23:42;;;;;;;4.65;3.67;;;24.30;1.00;;;;;;5094607;28;20024;-78
2022/07/15 07:26:09;;;;;;;4.82;4.32;;;24.30;1.00;;;;;;5091164;28;20404;-78
2022/07/15 07:28:35;;;;;;;7.78;4.65;;;24.10;1.00;;;;;;5090620;28;20414;-78
2022/07/15 07:31:01;;;;;;;6.82;3.83;;;24.20;1.00;;;;;;5091305;28;20032;-78
2022/07/15 07:33:27;;;;;;;9.55;4.07;;;24.30;1.00;;;;;;5091177;28;20047;-78
2022/07/15 07:35:53;;;;;;;11.20;4.38;;;24.40;1.00;;;;;;5092593;28;20476;-78
2022/07/15 07:38:20;;;;;;;8.57;4.00;;;24.50;1.00;;;;;;5090841;28;20134;-78
2022/07/15 07:40:50;;;;;;;14.85;4.93;;;24.50;1.00;;;;;;5090833;28;20035;-79
2022/07/15 07:43:17;;;;;;;7.75;5.00;;;24.60;1.00;;;;;;5090977;28;20024;-77
2022/07/15 07:45:43;;;;;;;5.40;4.10;;;24.70;1.00;;;;;;5090676;28;20039;-78
2022/07/15 07:48:08;;;;;;;4.53;4.10;;;24.60;1.00;;;;;;5091935;28;20475;-79
2022/07/15 07:50:34;;;;;;;6.95;4.18;;;24.80;1.00;;;;;;5092096;28;20043;-78
2022/07/15 07:53:00;;;;;;;5.60;4.00;;;24.80;1.00;;;;;;5090704;28;20400;-78
2022/07/15 07:55:25;;;;;;;6.57;4.28;;;25.00;1.00;;;;;;5090601;28;20024;-78
2022/07/15 07:57:54;;;;;;;7.72;4.30;;;25.20;1.00;;;;;;5090531;28;20085;-78
2022/07/15 08:00:21;;;;;;;6.43;4.28;;;25.20;1.00;;;;;;5090731;28;20056;-78
2022/07/15 08:02:48;;;;;;;9.27;4.32;;;25.30;1.00;;;;;;5092670;28;20392;-78
2022/07/15 08:05:15;;;;;;;6.13;3.50;;;25.10;1.00;;;;;;5090563;28;20085;-78
2022/07/15 08:07:41;;;;;;;6.35;4.32;;;25.30;1.00;;;;;;5090518;28;20054;-78
2022/07/15 08:10:09;;;;;;;4.60;4.15;;;25.20;1.00;;;;;;5090480;28;20031;-79
2022/07/15 08:12:37;;;;;;;5.55;4.00;;;25.40;1.00;;;;;;5090308;28;20114;-78
2022/07/15 08:15:04;;;;;;;7.63;4.57;;;25.50;1.00;;;;;;5091963;28;20055;-78
2022/07/15 08:17:30;;;;;;;6.97;4.30;;;25.60;1.00;;;;;;5089741;28;20032;-78
2022/07/15 08:19:56;;;;;;;6.85;4.28;;;25.50;1.00;;;;;;5090396;28;20484;-78
2022/07/15 08:22:22;;;;;;;9.10;4.22;;;25.50;1.00;;;;;;5088805;28;20249;-79
2022/07/15 08:24:49;;;;;;;7.00;4.38;;;25.60;1.00;;;;;;5090398;28;20114;-78
2022/07/15 08:27:15;;;;;;;5.25;3.95;;;25.60;1.00;;;;;;5090324;28;20413;-78
2022/07/15 08:29:41;;;;;;;7.32;4.18;;;25.70;1.00;;;;;;5090239;28;20048;-78
2022/07/15 08:32:07;;;;;;;5.93;4.20;;;25.90;1.00;;;;;;5090377;28;20491;-78
2022/07/15 08:34:32;;;;;;;9.80;4.15;;;25.80;1.00;;;;;;5089994;28;20495;-78
2022/07/15 08:36:58;;;;;;;6.25;4.47;;;26.00;1.00;;;;;;5090321;28;20494;-78
2022/07/15 08:39:24;;;;;;;6.68;3.70;;;26.00;1.00;;;;;;5090066;28;20385;-78
2022/07/15 08:41:51;;;;;;;4.57;4.18;;;26.00;1.00;;;;;;5092113;28;20074;-78
2022/07/15 08:44:17;;;;;;;7.00;4.25;;;26.10;1.00;;;;;;5090024;28;20086;-78
2022/07/15 08:46:47;;;;;;;4.93;4.30;;;26.20;1.00;;;;;;5071996;28;20432;-78
2022/07/15 08:49:19;;;;;;;9.90;4.13;;;26.30;1.00;;;;;;5094058;28;20052;-78
2022/07/15 08:51:46;;;;;;;6.97;3.90;;;26.40;1.00;;;;;;5094324;28;20431;-78
2022/07/15 08:54:13;;;;;;;7.13;3.90;;;26.40;1.00;;;;;;5094761;28;20028;-78
2022/07/15 08:56:39;;;;;;;3.75;3.42;;;26.70;1.00;;;;;;5095674;28;20016;-78
2022/07/15 08:59:07;;;;;;;5.95;3.70;;;26.90;1.00;;;;;;5093966;28;20036;-78
2022/07/15 09:01:34;;;;;;;4.47;3.80;;;26.90;1.00;;;;;;5092878;28;20028;-78
2022/07/15 09:04:00;;;;;;;5.75;3.85;;;26.70;1.00;;;;;;5093961;28;20434;-79
2022/07/15 09:06:34;;;;;;;6.50;4.30;;;26.80;1.00;;;;;;5094065;28;20020;-79
2022/07/15 09:09:28;;;;;;;5.25;3.67;;;27.00;1.00;;;;;;5092338;28;20452;-78
2022/07/15 09:12:07;;;;;;;4.00;3.53;;;27.10;1.00;;;;;;5095474;28;20075;-79
2022/07/15 09:14:36;;;;;;;7.25;3.67;;;27.30;1.00;;;;;;5094743;28;20480;-78
2022/07/15 09:17:06;;;;;;;5.28;3.42;;;27.30;1.00;;;;;;5093784;28;20024;-79
2022/07/15 09:20:01;;;;;;;4.53;3.28;;;27.10;1.00;;;;;;5093598;28;20085;-78
2022/07/15 09:22:31;;;;;;;5.80;3.38;;;27.00;1.00;;;;;;5093650;28;20028;-78
2022/07/15 09:25:08;;;;;;;4.47;3.25;;;27.20;1.00;;;;;;5093374;28;20056;-78
2022/07/15 09:27:38;;;;;;;4.88;3.50;;;27.60;1.00;;;;;;5078044;28;20032;-79
2022/07/15 09:33:39;;;;;;;4.80;3.80;;;27.70;1.00;;;;;;5092215;28;20384;-79
2022/07/15 09:36:05;;;;;;;5.80;3.40;;;27.80;1.00;;;;;;5091179;28;20492;-78
2022/07/15 09:38:41;;;;;;;6.22;3.40;;;27.90;1.00;;;;;;5094183;28;20036;-78
2022/07/15 09:41:28;;;;;;;7.53;3.80;;;27.80;1.00;;;;;;5091688;28;20392;-78
2022/07/15 09:44:05;;;;;;;5.65;3.35;;;27.90;1.00;;;;;;5079520;28;20043;-79
2022/07/15 09:46:49;;;;;;;4.72;3.40;;;28.00;1.00;;;;;;5093219;28;20014;-79
2022/07/15 09:49:15;;;;;;;5.03;3.78;;;28.10;1.00;;;;;;5093265;28;20595;-79
2022/07/15 09:51:58;;;;;;;5.82;3.42;;;28.10;1.00;;;;;;5093254;28;20024;-79
2022/07/15 09:54:30;;;;;;;4.65;3.47;;;28.20;1.00;;;;;;5092779;28;20492;-79
2022/07/15 09:56:57;;;;;;;5.70;3.60;;;28.30;1.00;;;;;;5095188;28;20515;-78
2022/07/15 09:59:24;;;;;;;6.25;3.20;;;28.40;1.00;;;;;;5092110;28;20032;-79
2022/07/15 10:01:50;;;;;;;5.78;3.45;;;28.60;1.00;;;;;;5092873;28;20035;-79
2022/07/15 10:04:17;;;;;;;3.55;3.08;;;28.70;1.00;;;;;;5092684;28;20016;-79
2022/07/15 10:06:46;;;;;;;3.25;2.95;;;28.80;1.00;;;;;;5092936;28;20036;-79
2022/07/15 10:09:12;;;;;;;6.63;3.13;;;28.80;1.00;;;;;;5093228;28;20161;-79
2022/07/15 10:11:48;;;;;;;6.22;3.35;;;29.00;1.00;;;;;;5094363;28;20115;-79
2022/07/15 10:14:42;;;;;;;5.30;3.20;;;28.90;1.00;;;;;;5092682;28;20027;-78
2022/07/15 10:17:38;;;;;;;5.72;3.53;;;28.90;1.00;;;;;;5092559;28;20073;-78
2022/07/15 10:20:54;;;;;;;4.45;3.28;;;29.00;1.00;;;;;;5092652;28;20081;-79
2022/07/15 10:23:31;;;;;;;4.38;3.00;;;29.00;1.00;;;;;;5011531;28;20054;-79
2022/07/15 10:26:14;;;;;;;3.65;3.10;;;29.20;1.00;;;;;;5004885;28;20129;-79
2022/07/15 10:28:51;;;;;;;4.03;3.13;;;29.20;1.00;;;;;;5009224;28;20054;-79
2022/07/15 10:31:21;;;;;;;4.15;3.33;;;29.30;1.00;;;;;;5020335;28;20026;-79
2022/07/15 10:34:10;;;;;;;3.00;2.70;;;29.20;1.00;;;;;;5018244;28;20037;-79
2022/07/15 10:36:47;;;;;;;3.03;2.75;;;29.40;1.00;;;;;;5008873;28;20434;-79
2022/07/15 10:39:21;;;;;;;5.60;3.00;;;29.50;1.00;;;;;;5031237;28;20038;-79
2022/07/15 10:42:04;;;;;;;3.92;3.50;;;29.40;1.00;;;;;;5016728;28;20045;-79
2022/07/15 10:44:33;;;;;;;3.17;2.88;;;29.50;1.00;;;;;;5019654;28;20056;-79
2022/07/15 10:47:13;;;;;;;4.82;3.03;;;29.40;1.00;;;;;;5020254;28;20038;-79
2022/07/15 10:49:40;;;;;;;4.63;2.83;;;29.60;1.00;;;;;;5020013;28;20057;-79
2022/07/15 10:52:12;;;;;;;3.67;2.92;;;29.70;1.00;;;;;;5019494;28;20491;-79
2022/07/15 10:54:49;;;;;;;6.35;3.10;;;29.60;1.00;;;;;;5016445;28;20116;-79
2022/07/15 10:57:17;;;;;;;4.43;2.80;;;29.80;1.00;;;;;;5015592;28;20053;-79
2022/07/15 10:59:55;;;;;;;4.80;3.05;;;30.10;1.00;;;;;;5089267;28;20286;-79
2022/07/15 11:02:23;;;;;;;4.13;3.03;;;30.20;1.00;;;;;;5091715;28;20524;-79
2022/07/15 11:04:50;;;;;;;4.15;2.90;;;30.10;1.00;;;;;;5091577;28;20024;-78
2022/07/15 11:07:16;;;;;;;4.32;3.00;;;30.00;1.00;;;;;;5091341;28;20107;-79
2022/07/15 11:09:45;;;;;;;4.78;3.00;;;30.00;1.00;;;;;;5091632;28;20162;-79
2022/07/15 11:12:14;;;;;;;5.07;3.15;;;30.10;1.00;;;;;;5091258;28;20488;-79
2022/07/15 11:14:47;;;;;;;4.65;2.80;;;30.10;1.00;;;;;;5093449;28;20028;-79
2022/07/15 11:17:16;;;;;;;4.53;2.50;;;30.20;1.00;;;;;;5091401;28;20562;-79
2022/07/15 11:19:45;;;;;;;5.85;2.85;;;30.30;1.00;;;;;;5091252;28;20032;-79
2022/07/15 11:22:11;;;;;;;5.50;2.85;;;30.30;1.00;;;;;;5091155;28;20020;-79
2022/07/15 11:24:37;;;;;;;3.08;2.70;;;30.50;1.00;;;;;;5091432;28;20034;-79
2022/07/15 11:27:03;;;;;;;3.30;2.67;;;30.70;1.00;;;;;;5093036;28;20461;-79
2022/07/15 11:29:47;;;;;;;3.13;2.40;;;30.60;1.00;;;;;;5091666;28;20040;-79
2022/07/15 11:32:14;;;;;;;3.58;2.42;;;30.50;1.00;;;;;;5091125;28;20028;-79
2022/07/15 11:34:44;;;;;;;4.05;2.60;;;30.70;1.00;;;;;;5091036;28;20077;-79
2022/07/15 11:37:10;;;;;;;7.60;2.83;;;30.80;1.00;;;;;;5089482;28;20473;-79
2022/07/15 11:39:37;;;;;;;3.85;2.42;;;31.00;1.00;;;;;;5090991;28;20439;-79
2022/07/15 11:44:49;;;;;;;3.25;2.53;;;31.10;1.00;;;;;;5092091;28;20391;-79
2022/07/15 11:47:15;;;;;;;3.28;2.67;;;31.00;1.00;;;;;;5090981;28;20012;-79
2022/07/15 11:49:44;;;;;;;3.88;2.75;;;31.20;1.00;;;;;;5090509;28;20024;-79
2022/07/15 11:52:24;;;;;;;3.17;2.80;;;31.50;1.00;;;;;;5090841;28;20099;-79
2022/07/15 11:54:50;;;;;;;4.15;2.70;;;32.00;1.00;;;;;;5090849;28;20028;-79
2022/07/15 11:57:16;;;;;;;3.85;2.80;;;32.50;1.00;;;;;;5091048;28;20368;-79
2022/07/15 11:59:54;;;;;;;3.38;2.40;;;34.40;1.00;;;;;;5090610;28;20484;-79
2022/07/15 12:02:24;;;;;;;6.55;2.80;;;36.00;1.00;;;;;;5090650;28;20024;-79
2022/07/15 12:04:50;;;;;;;2.95;2.65;;;37.60;1.00;;;;;;5090182;28;20466;-79
2022/07/15 12:07:16;;;;;;;6.95;2.40;;;38.90;1.00;;;;;;5090548;28;20107;-79
2022/07/15 12:09:47;;;;;;;4.05;2.40;;;39.30;1.00;;;;;;5090787;28;20115;-80
2022/07/15 12:12:13;;;;;;;3.35;2.58;;;39.50;1.00;;;;;;5091112;28;20024;-79
2022/07/15 12:14:39;;;;;;;3.15;2.47;;;40.30;1.00;;;;;;5092278;28;20039;-79
2022/07/15 12:17:05;;;;;;;2.33;2.13;;;40.70;1.00;;;;;;5089018;28;20020;-79
2022/07/15 12:19:33;;;;;;;3.85;2.13;;;39.90;1.00;;;;;;5089974;28;20500;-79
2022/07/15 12:22:07;;;;;;;3.53;2.10;;;40.80;1.00;;;;;;5089976;28;20074;-80
2022/07/15 12:24:44;;;;;;;2.65;2.45;;;41.00;1.00;;;;;;5074837;28;20527;-80
2022/07/15 12:27:11;;;;;;;6.38;2.40;;;41.00;1.00;;;;;;5091461;28;20028;-79
2022/07/15 12:29:38;;;;;;;3.38;2.33;;;41.70;1.00;;;;;;5091501;28;20055;-79
2022/07/15 12:32:10;;;;;;;5.05;2.40;;;41.20;1.00;;;;;;5090116;28;20027;-79
2022/07/15 12:34:55;;;;;;;3.60;2.30;;;41.50;1.00;;;;;;5089673;28;20406;-79
2022/07/15 12:37:26;;;;;;;3.42;2.17;;;42.30;1.00;;;;;;5090212;28;20035;-80
2022/07/15 12:40:11;;;;;;;3.50;2.08;;;42.00;1.00;;;;;;5090300;28;20048;-80
2022/07/15 12:42:40;;;;;;;2.67;1.85;;;41.50;1.00;;;;;;5075059;28;20081;-80
2022/07/15 12:45:21;;;;;;;2.83;2.05;;;42.00;1.00;;;;;;5091628;28;20028;-79
2022/07/15 12:48:00;;;;;;;2.83;2.40;;;41.80;1.00;;;;;;5090381;28;20020;-80
2022/07/15 12:50:27;;;;;;;3.53;2.17;;;42.00;1.00;;;;;;5088920;28;20032;-80
2022/07/15 12:52:55;;;;;;;4.03;2.20;;;42.20;1.00;;;;;;5089942;28;20020;-80
2022/07/15 12:55:26;;;;;;;5.70;2.50;;;42.60;1.00;;;;;;5088648;28;20120;-80
2022/07/15 12:58:02;;;;;;;3.30;2.38;;;42.60;1.00;;;;;;5089976;28;20073;-80
2022/07/15 13:00:29;;;;;;;3.20;2.40;;;43.00;1.00;;;;;;5090133;28;20095;-80
2022/07/15 13:03:14;;;;;;;2.42;2.13;;;42.60;1.00;;;;;;5091902;28;20023;-80
2022/07/15 13:05:48;;;;;;;4.30;2.33;;;41.70;1.00;;;;;;5091807;28;20527;-80
2022/07/15 13:08:14;;;;;;;2.03;1.90;;;41.00;1.00;;;;;;5090022;28;20012;-80
2022/07/15 13:10:42;;;;;;;3.30;2.10;;;40.70;1.00;;;;;;5089822;28;20027;-80
2022/07/15 13:13:09;;;;;;;2.28;1.83;;;40.70;1.00;;;;;;5089898;28;20362;-80